sensor_id;sensor_type;location;lat;lon;timestamp;pressure;altitude;pressure_sealevel;temperature;humidity
5609;BME280;2826;51.354;9.588;2023-12-20T00:00:56;97822.69;;;6.11;94.96
5609;BME280;2826;51.354;9.588;2023-12-20T00:03:22;97824.19;;;6.18;94.86
5609;BME280;2826;51.354;9.588;2023-12-20T00:05:49;97817.44;;;6.14;94.83
5609;BME280;2826;51.354;9.588;2023-12-20T00:08:16;97829.31;;;6.20;94.78
5609;BME280;2826;51.354;9.588;2023-12-20T00:10:43;97825.94;;;6.18;94.96
5609;BME280;2826;51.354;9.588;2023-12-20T00:13:11;97829.91;;;6.30;94.48
5609;BME280;2826;51.354;9.588;2023-12-20T00:15:38;97829.81;;;6.33;94.37
5609;BME280;2826;51.354;9.588;2023-12-20T00:18:04;97821.84;;;6.42;94.05
5609;BME280;2826;51.354;9.588;2023-12-20T00:20:31;97823.66;;;6.38;93.78
5609;BME280;2826;51.354;9.588;2023-12-20T00:22:57;97828.72;;;6.42;93.62
5609;BME280;2826;51.354;9.588;2023-12-20T00:25:24;97829.59;;;6.40;94.06
5609;BME280;2826;51.354;9.588;2023-12-20T00:27:51;97827.28;;;6.31;94.07
5609;BME280;2826;51.354;9.588;2023-12-20T00:30:19;97828.16;;;6.30;94.83
5609;BME280;2826;51.354;9.588;2023-12-20T00:32:46;97820.41;;;6.32;94.61
5609;BME280;2826;51.354;9.588;2023-12-20T00:35:12;97817.03;;;6.30;95.21
5609;BME280;2826;51.354;9.588;2023-12-20T00:37:39;97816.13;;;6.31;94.90
5609;BME280;2826;51.354;9.588;2023-12-20T00:40:06;97809.13;;;6.36;94.82
5609;BME280;2826;51.354;9.588;2023-12-20T00:42:33;97804.00;;;6.34;94.47
5609;BME280;2826;51.354;9.588;2023-12-20T00:45:00;97804.06;;;6.33;94.61
5609;BME280;2826;51.354;9.588;2023-12-20T00:47:27;97810.88;;;6.35;94.72
5609;BME280;2826;51.354;9.588;2023-12-20T00:49:54;97807.44;;;6.35;94.82
5609;BME280;2826;51.354;9.588;2023-12-20T00:52:20;97804.72;;;6.39;94.21
5609;BME280;2826;51.354;9.588;2023-12-20T00:54:48;97810.81;;;6.37;94.36
5609;BME280;2826;51.354;9.588;2023-12-20T00:57:14;97806.47;;;6.39;94.79
5609;BME280;2826;51.354;9.588;2023-12-20T00:59:41;97814.13;;;6.42;94.35
5609;BME280;2826;51.354;9.588;2023-12-20T01:02:07;97808.16;;;6.40;94.74
5609;BME280;2826;51.354;9.588;2023-12-20T01:04:36;97808.31;;;6.35;94.88
5609;BME280;2826;51.354;9.588;2023-12-20T01:07:03;97809.03;;;6.39;94.68
5609;BME280;2826;51.354;9.588;2023-12-20T01:09:29;97808.19;;;6.38;94.88
5609;BME280;2826;51.354;9.588;2023-12-20T01:11:56;97809.84;;;6.41;94.93
5609;BME280;2826;51.354;9.588;2023-12-20T01:14:22;97813.19;;;6.45;95.22
5609;BME280;2826;51.354;9.588;2023-12-20T01:16:49;97798.50;;;6.47;94.40
5609;BME280;2826;51.354;9.588;2023-12-20T01:19:15;97801.94;;;6.47;94.75
5609;BME280;2826;51.354;9.588;2023-12-20T01:21:43;97805.50;;;6.43;94.68
5609;BME280;2826;51.354;9.588;2023-12-20T01:24:10;97802.72;;;6.49;94.77
5609;BME280;2826;51.354;9.588;2023-12-20T01:26:36;97812.13;;;6.50;94.23
5609;BME280;2826;51.354;9.588;2023-12-20T01:29:03;97805.22;;;6.52;94.33
5609;BME280;2826;51.354;9.588;2023-12-20T01:31:29;97800.97;;;6.51;94.60
5609;BME280;2826;51.354;9.588;2023-12-20T01:33:56;97808.81;;;6.47;94.67
5609;BME280;2826;51.354;9.588;2023-12-20T01:36:22;97795.75;;;6.53;94.44
5609;BME280;2826;51.354;9.588;2023-12-20T01:38:50;97784.53;;;6.56;94.56
5609;BME280;2826;51.354;9.588;2023-12-20T01:41:17;97788.75;;;6.58;94.08
5609;BME280;2826;51.354;9.588;2023-12-20T01:43:43;97785.31;;;6.58;94.41
5609;BME280;2826;51.354;9.588;2023-12-20T01:46:10;97790.47;;;6.58;94.58
5609;BME280;2826;51.354;9.588;2023-12-20T01:48:37;97793.06;;;6.58;94.59
5609;BME280;2826;51.354;9.588;2023-12-20T01:51:04;97800.75;;;6.59;94.22
5609;BME280;2826;51.354;9.588;2023-12-20T01:53:31;97799.81;;;6.62;94.42
5609;BME280;2826;51.354;9.588;2023-12-20T01:55:59;97815.19;;;6.65;94.14
5609;BME280;2826;51.354;9.588;2023-12-20T01:58:26;97803.97;;;6.66;93.94
5609;BME280;2826;51.354;9.588;2023-12-20T02:00:53;97796.25;;;6.66;94.11
5609;BME280;2826;51.354;9.588;2023-12-20T02:03:20;97783.59;;;6.58;94.12
5609;BME280;2826;51.354;9.588;2023-12-20T02:05:47;97801.41;;;6.66;93.94
5609;BME280;2826;51.354;9.588;2023-12-20T02:08:14;97821.03;;;6.70;94.21
5609;BME280;2826;51.354;9.588;2023-12-20T02:10:40;97806.34;;;6.72;93.97
5609;BME280;2826;51.354;9.588;2023-12-20T02:13:08;97820.09;;;6.73;93.86
5609;BME280;2826;51.354;9.588;2023-12-20T02:15:35;97824.28;;;6.77;94.02
5609;BME280;2826;51.354;9.588;2023-12-20T02:18:03;97825.03;;;6.80;93.68
5609;BME280;2826;51.354;9.588;2023-12-20T02:20:29;97815.66;;;6.78;94.08
5609;BME280;2826;51.354;9.588;2023-12-20T02:22:57;97821.66;;;6.78;94.01
5609;BME280;2826;51.354;9.588;2023-12-20T02:25:24;97821.75;;;6.75;94.07
5609;BME280;2826;51.354;9.588;2023-12-20T02:27:50;97809.75;;;6.74;94.07
5609;BME280;2826;51.354;9.588;2023-12-20T02:30:17;97814.91;;;6.74;93.90
5609;BME280;2826;51.354;9.588;2023-12-20T02:32:44;97817.47;;;6.74;93.95
5609;BME280;2826;51.354;9.588;2023-12-20T02:35:10;97823.50;;;6.73;93.85
5609;BME280;2826;51.354;9.588;2023-12-20T02:37:36;97820.03;;;6.76;93.94
5609;BME280;2826;51.354;9.588;2023-12-20T02:40:05;97826.00;;;6.76;93.70
5609;BME280;2826;51.354;9.588;2023-12-20T02:42:32;97817.47;;;6.74;94.24
5609;BME280;2826;51.354;9.588;2023-12-20T02:44:59;97819.91;;;6.79;93.90
5609;BME280;2826;51.354;9.588;2023-12-20T02:47:25;97813.88;;;6.80;94.24
5609;BME280;2826;51.354;9.588;2023-12-20T02:49:52;97814.75;;;6.79;94.70
5609;BME280;2826;51.354;9.588;2023-12-20T02:52:19;97817.91;;;6.89;94.32
5609;BME280;2826;51.354;9.588;2023-12-20T02:54:45;97821.34;;;6.89;94.20
5609;BME280;2826;51.354;9.588;2023-12-20T02:57:13;97822.94;;;6.93;93.62
5609;BME280;2826;51.354;9.588;2023-12-20T02:59:39;97816.91;;;6.93;93.59
5609;BME280;2826;51.354;9.588;2023-12-20T03:02:06;97810.91;;;6.92;94.12
5609;BME280;2826;51.354;9.588;2023-12-20T03:04:32;97804.16;;;6.88;94.15
5609;BME280;2826;51.354;9.588;2023-12-20T03:06:59;97818.66;;;6.92;93.92
5609;BME280;2826;51.354;9.588;2023-12-20T03:09:25;97807.47;;;6.93;94.01
5609;BME280;2826;51.354;9.588;2023-12-20T03:11:52;97802.34;;;6.92;93.36
5609;BME280;2826;51.354;9.588;2023-12-20T03:14:20;97800.50;;;6.96;93.46
5609;BME280;2826;51.354;9.588;2023-12-20T03:16:47;97806.81;;;6.87;93.35
5609;BME280;2826;51.354;9.588;2023-12-20T03:19:15;97789.41;;;6.93;93.21
5609;BME280;2826;51.354;9.588;2023-12-20T03:21:55;97795.13;;;7.03;92.14
5609;BME280;2826;51.354;9.588;2023-12-20T03:24:22;97797.34;;;7.14;91.21
5609;BME280;2826;51.354;9.588;2023-12-20T03:26:48;97801.69;;;7.14;91.91
5609;BME280;2826;51.354;9.588;2023-12-20T03:29:15;97808.31;;;7.21;90.97
5609;BME280;2826;51.354;9.588;2023-12-20T03:31:43;97814.41;;;7.18;91.21
5609;BME280;2826;51.354;9.588;2023-12-20T03:34:09;97799.69;;;7.22;90.99
5609;BME280;2826;51.354;9.588;2023-12-20T03:36:36;97797.22;;;7.19;90.83
5609;BME280;2826;51.354;9.588;2023-12-20T03:39:03;97800.59;;;7.21;90.58
5609;BME280;2826;51.354;9.588;2023-12-20T03:41:30;97808.13;;;7.27;90.10
5609;BME280;2826;51.354;9.588;2023-12-20T03:43:56;97807.38;;;7.24;90.04
5609;BME280;2826;51.354;9.588;2023-12-20T03:46:23;97792.59;;;7.29;89.89
5609;BME280;2826;51.354;9.588;2023-12-20T03:48:51;97797.88;;;7.26;89.81
5609;BME280;2826;51.354;9.588;2023-12-20T03:51:17;97806.47;;;7.25;90.17
5609;BME280;2826;51.354;9.588;2023-12-20T03:53:44;97798.03;;;7.19;90.00
5609;BME280;2826;51.354;9.588;2023-12-20T03:56:10;97806.72;;;7.17;90.34
5609;BME280;2826;51.354;9.588;2023-12-20T03:58:37;97811.78;;;7.20;90.18
5609;BME280;2826;51.354;9.588;2023-12-20T04:01:09;97833.22;;;7.22;89.99
5609;BME280;2826;51.354;9.588;2023-12-20T04:03:36;97813.44;;;7.23;90.26
5609;BME280;2826;51.354;9.588;2023-12-20T04:06:04;97823.78;;;7.21;89.83
5609;BME280;2826;51.354;9.588;2023-12-20T04:08:30;97829.66;;;7.26;89.53
5609;BME280;2826;51.354;9.588;2023-12-20T04:10:57;97841.66;;;7.27;89.61
5609;BME280;2826;51.354;9.588;2023-12-20T04:13:23;97831.16;;;7.34;89.25
5609;BME280;2826;51.354;9.588;2023-12-20T04:15:50;97836.69;;;7.21;89.12
5609;BME280;2826;51.354;9.588;2023-12-20T04:18:17;97818.47;;;7.27;88.97
5609;BME280;2826;51.354;9.588;2023-12-20T04:20:44;97826.47;;;7.18;88.60
5609;BME280;2826;51.354;9.588;2023-12-20T04:23:12;97825.88;;;7.10;87.36
5609;BME280;2826;51.354;9.588;2023-12-20T04:25:38;97819.78;;;7.12;86.60
5609;BME280;2826;51.354;9.588;2023-12-20T04:28:05;97827.47;;;7.14;86.02
5609;BME280;2826;51.354;9.588;2023-12-20T04:30:31;97827.59;;;7.09;85.49
5609;BME280;2826;51.354;9.588;2023-12-20T04:32:58;97823.31;;;7.10;84.73
5609;BME280;2826;51.354;9.588;2023-12-20T04:35:24;97819.94;;;7.06;84.46
5609;BME280;2826;51.354;9.588;2023-12-20T04:37:51;97820.75;;;7.08;84.53
5609;BME280;2826;51.354;9.588;2023-12-20T04:40:19;97815.75;;;7.03;84.36
5609;BME280;2826;51.354;9.588;2023-12-20T04:42:46;97823.59;;;7.00;84.46
5609;BME280;2826;51.354;9.588;2023-12-20T04:45:12;97825.50;;;6.93;84.17
5609;BME280;2826;51.354;9.588;2023-12-20T04:47:41;97821.66;;;6.78;83.54
5609;BME280;2826;51.354;9.588;2023-12-20T04:50:08;97818.59;;;6.94;82.40
5609;BME280;2826;51.354;9.588;2023-12-20T04:52:34;97819.94;;;7.06;81.90
5609;BME280;2826;51.354;9.588;2023-12-20T04:55:01;97815.75;;;7.03;81.56
5609;BME280;2826;51.354;9.588;2023-12-20T04:57:29;97824.38;;;7.02;80.92
5609;BME280;2826;51.354;9.588;2023-12-20T04:59:55;97821.59;;;7.09;80.32
5609;BME280;2826;51.354;9.588;2023-12-20T05:02:22;97806.44;;;6.98;79.80
5609;BME280;2826;51.354;9.588;2023-12-20T05:04:48;97814.16;;;6.99;79.59
5609;BME280;2826;51.354;9.588;2023-12-20T05:07:15;97821.00;;;7.00;79.94
5609;BME280;2826;51.354;9.588;2023-12-20T05:09:42;97821.00;;;7.00;79.99
5609;BME280;2826;51.354;9.588;2023-12-20T05:12:08;97825.91;;;6.79;79.53
5609;BME280;2826;51.354;9.588;2023-12-20T05:14:36;97817.47;;;6.74;78.49
5609;BME280;2826;51.354;9.588;2023-12-20T05:17:03;97816.03;;;6.94;77.76
5609;BME280;2826;51.354;9.588;2023-12-20T05:19:30;97807.38;;;6.95;77.33
5609;BME280;2826;51.354;9.588;2023-12-20T05:21:56;97823.75;;;6.94;77.58
5609;BME280;2826;51.354;9.588;2023-12-20T05:24:23;97825.50;;;6.93;78.13
5609;BME280;2826;51.354;9.588;2023-12-20T05:26:49;97807.78;;;6.83;78.06
5609;BME280;2826;51.354;9.588;2023-12-20T05:29:16;97816.38;;;6.82;78.47
5609;BME280;2826;51.354;9.588;2023-12-20T05:31:43;97816.59;;;6.75;79.09
5609;BME280;2826;51.354;9.588;2023-12-20T05:34:10;97813.31;;;6.70;79.89
5609;BME280;2826;51.354;9.588;2023-12-20T05:36:37;97821.03;;;6.70;79.66
5609;BME280;2826;51.354;9.588;2023-12-20T05:39:04;97822.81;;;6.68;79.97
5609;BME280;2826;51.354;9.588;2023-12-20T05:41:30;97823.88;;;6.61;80.14
5609;BME280;2826;51.354;9.588;2023-12-20T05:43:57;97819.66;;;6.58;80.25
5609;BME280;2826;51.354;9.588;2023-12-20T05:46:24;97815.63;;;6.49;80.35
5609;BME280;2826;51.354;9.588;2023-12-20T05:48:52;97821.44;;;6.56;80.95
5609;BME280;2826;51.354;9.588;2023-12-20T05:51:19;97825.75;;;6.56;81.25
5609;BME280;2826;51.354;9.588;2023-12-20T05:53:45;97831.78;;;6.54;81.02
5609;BME280;2826;51.354;9.588;2023-12-20T05:56:12;97830.84;;;6.57;80.61
5609;BME280;2826;51.354;9.588;2023-12-20T05:58:39;97846.88;;;6.67;80.33
5609;BME280;2826;51.354;9.588;2023-12-20T06:01:05;97838.22;;;6.70;80.29
5609;BME280;2826;51.354;9.588;2023-12-20T06:03:33;97837.47;;;6.66;79.74
5609;BME280;2826;51.354;9.588;2023-12-20T06:06:05;97834.00;;;6.67;79.99
5609;BME280;2826;51.354;9.588;2023-12-20T06:08:32;97832.25;;;6.69;79.80
5609;BME280;2826;51.354;9.588;2023-12-20T06:10:59;97843.41;;;6.68;79.78
5609;BME280;2826;51.354;9.588;2023-12-20T06:13:25;97846.19;;;6.62;80.14
5609;BME280;2826;51.354;9.588;2023-12-20T06:15:54;97841.09;;;6.59;80.27
5609;BME280;2826;51.354;9.588;2023-12-20T06:18:20;97839.41;;;6.58;80.06
5609;BME280;2826;51.354;9.588;2023-12-20T06:20:47;97832.66;;;6.53;nan
5609;BME280;2826;51.354;9.588;2023-12-20T06:23:14;97836.13;;;6.52;80.17
5609;BME280;2826;51.354;9.588;2023-12-20T06:25:41;97841.16;;;6.57;80.07
5609;BME280;2826;51.354;9.588;2023-12-20T06:28:08;97839.22;;;6.64;80.06
5609;BME280;2826;51.354;9.588;2023-12-20T06:30:35;97842.03;;;6.56;80.41
5609;BME280;2826;51.354;9.588;2023-12-20T06:33:02;97833.28;;;6.62;79.78
5609;BME280;2826;51.354;9.588;2023-12-20T06:35:29;97837.56;;;6.63;79.39
5609;BME280;2826;51.354;9.588;2023-12-20T06:37:55;97826.50;;;6.59;79.51
5609;BME280;2826;51.354;9.588;2023-12-20T06:40:23;97835.25;;;6.53;80.02
5609;BME280;2826;51.354;9.588;2023-12-20T06:42:49;97839.69;;;6.48;80.20
5609;BME280;2826;51.354;9.588;2023-12-20T06:45:16;97836.97;;;6.53;80.13
5609;BME280;2826;51.354;9.588;2023-12-20T06:47:42;97826.94;;;6.44;79.99
5609;BME280;2826;51.354;9.588;2023-12-20T06:50:09;97820.41;;;6.62;79.70
5609;BME280;2826;51.354;9.588;2023-12-20T06:52:35;97813.47;;;6.64;79.36
5609;BME280;2826;51.354;9.588;2023-12-20T06:55:03;97816.19;;;6.59;79.16
5609;BME280;2826;51.354;9.588;2023-12-20T06:57:31;97814.44;;;6.60;79.55
5609;BME280;2826;51.354;9.588;2023-12-20T06:59:57;97818.03;;;6.56;79.46
5609;BME280;2826;51.354;9.588;2023-12-20T07:02:24;97809.47;;;6.53;79.49
5609;BME280;2826;51.354;9.588;2023-12-20T07:04:50;97818.81;;;6.58;79.43
5609;BME280;2826;51.354;9.588;2023-12-20T07:07:17;97818.16;;;6.51;79.75
5609;BME280;2826;51.354;9.588;2023-12-20T07:09:44;97817.91;;;6.59;79.38
5609;BME280;2826;51.354;9.588;2023-12-20T07:12:10;97828.94;;;6.64;79.68
5609;BME280;2826;51.354;9.588;2023-12-20T07:14:38;97826.53;;;6.58;79.93
5609;BME280;2826;51.354;9.588;2023-12-20T07:17:04;97826.59;;;6.56;80.26
5609;BME280;2826;51.354;9.588;2023-12-20T07:19:32;97827.47;;;6.55;80.43
5609;BME280;2826;51.354;9.588;2023-12-20T07:21:59;97835.22;;;6.55;80.29
5609;BME280;2826;51.354;9.588;2023-12-20T07:24:25;97842.94;;;6.55;80.33
5609;BME280;2826;51.354;9.588;2023-12-20T07:26:52;97843.19;;;6.46;80.83
5609;BME280;2826;51.354;9.588;2023-12-20T07:29:18;97840.53;;;6.49;80.35
5609;BME280;2826;51.354;9.588;2023-12-20T07:31:46;97838.00;;;6.47;80.81
5609;BME280;2826;51.354;9.588;2023-12-20T07:34:13;97837.22;;;6.44;80.53
5609;BME280;2826;51.354;9.588;2023-12-20T07:36:39;97848.44;;;6.43;80.61
5609;BME280;2826;51.354;9.588;2023-12-20T07:39:06;97846.66;;;6.45;80.84
5609;BME280;2826;51.354;9.588;2023-12-20T07:41:32;97850.19;;;6.42;80.70
5609;BME280;2826;51.354;9.588;2023-12-20T07:43:59;97856.13;;;6.44;80.31
5609;BME280;2826;51.354;9.588;2023-12-20T07:46:25;97854.44;;;6.43;80.31
5609;BME280;2826;51.354;9.588;2023-12-20T07:48:53;97877.56;;;6.45;80.31
5609;BME280;2826;51.354;9.588;2023-12-20T07:51:20;97865.53;;;6.45;80.11
5609;BME280;2826;51.354;9.588;2023-12-20T07:53:46;97861.38;;;6.39;80.51
5609;BME280;2826;51.354;9.588;2023-12-20T07:56:13;97864.09;;;6.35;80.81
5609;BME280;2826;51.354;9.588;2023-12-20T07:58:40;97855.31;;;6.42;80.83
5609;BME280;2826;51.354;9.588;2023-12-20T08:01:06;97862.16;;;6.43;80.69
5609;BME280;2826;51.354;9.588;2023-12-20T08:03:33;97867.13;;;6.49;80.44
5609;BME280;2826;51.354;9.588;2023-12-20T08:06:02;97865.78;;;6.36;80.93
5609;BME280;2826;51.354;9.588;2023-12-20T08:08:29;97859.41;;;6.49;80.71
5609;BME280;2826;51.354;9.588;2023-12-20T08:10:55;97851.75;;;6.46;80.59
5609;BME280;2826;51.354;9.588;2023-12-20T08:13:24;97857.75;;;6.47;80.69
5609;BME280;2826;51.354;9.588;2023-12-20T08:15:51;97852.41;;;6.53;80.65
5609;BME280;2826;51.354;9.588;2023-12-20T08:18:18;97864.34;;;6.57;80.74
5609;BME280;2826;51.354;9.588;2023-12-20T08:20:44;97857.69;;;6.50;80.42
5609;BME280;2826;51.354;9.588;2023-12-20T08:23:13;97866.22;;;6.50;80.98
5609;BME280;2826;51.354;9.588;2023-12-20T08:25:39;97864.81;;;6.40;81.29
5609;BME280;2826;51.354;9.588;2023-12-20T08:28:06;97865.25;;;6.54;80.69
5609;BME280;2826;51.354;9.588;2023-12-20T08:30:32;97879.78;;;6.57;80.57
5609;BME280;2826;51.354;9.588;2023-12-20T08:32:59;97876.38;;;6.57;81.25
5609;BME280;2826;51.354;9.588;2023-12-20T08:35:26;97862.66;;;6.56;81.21
5609;BME280;2826;51.354;9.588;2023-12-20T08:37:52;97867.84;;;6.54;81.39
5609;BME280;2826;51.354;9.588;2023-12-20T08:40:20;97857.56;;;6.53;81.63
5609;BME280;2826;51.354;9.588;2023-12-20T08:42:47;97857.50;;;6.56;81.71
5609;BME280;2826;51.354;9.588;2023-12-20T08:45:14;97867.72;;;6.59;81.54
5609;BME280;2826;51.354;9.588;2023-12-20T08:47:40;97846.75;;;6.42;81.81
5609;BME280;2826;51.354;9.588;2023-12-20T08:50:10;97853.09;;;6.60;81.58
5609;BME280;2826;51.354;9.588;2023-12-20T08:52:37;97859.28;;;6.54;81.96
5609;BME280;2826;51.354;9.588;2023-12-20T08:55:04;97845.09;;;6.39;82.50
5609;BME280;2826;51.354;9.588;2023-12-20T08:57:32;97847.22;;;6.54;82.26
5609;BME280;2826;51.354;9.588;2023-12-20T08:59:59;97861.19;;;6.47;82.89
5609;BME280;2826;51.354;9.588;2023-12-20T09:02:25;97850.78;;;6.50;82.74
5609;BME280;2826;51.354;9.588;2023-12-20T09:04:52;97855.78;;;6.57;82.48
5609;BME280;2826;51.354;9.588;2023-12-20T09:07:22;97841.81;;;6.64;82.50
5609;BME280;2826;51.354;9.588;2023-12-20T09:09:49;97844.31;;;6.67;82.00
5609;BME280;2826;51.354;9.588;2023-12-20T09:12:16;97850.28;;;6.69;81.93
5609;BME280;2826;51.354;9.588;2023-12-20T09:14:44;97844.03;;;6.76;81.89
5609;BME280;2826;51.354;9.588;2023-12-20T09:17:11;97856.91;;;6.76;82.02
5609;BME280;2826;51.354;9.588;2023-12-20T09:19:38;97862.97;;;6.75;81.77
5609;BME280;2826;51.354;9.588;2023-12-20T09:22:04;97876.72;;;6.76;81.83
5609;BME280;2826;51.354;9.588;2023-12-20T09:24:31;97861.56;;;6.65;82.44
5609;BME280;2826;51.354;9.588;2023-12-20T09:26:58;97873.25;;;6.77;82.41
5609;BME280;2826;51.354;9.588;2023-12-20T09:29:24;97876.47;;;6.84;81.81
5609;BME280;2826;51.354;9.588;2023-12-20T09:31:52;97884.25;;;6.82;82.19
5609;BME280;2826;51.354;9.588;2023-12-20T09:34:19;97875.91;;;6.74;82.68
5609;BME280;2826;51.354;9.588;2023-12-20T09:36:45;97881.75;;;6.79;82.62
5609;BME280;2826;51.354;9.588;2023-12-20T09:39:12;97863.16;;;6.69;82.96
5609;BME280;2826;51.354;9.588;2023-12-20T09:41:42;97873.25;;;6.77;83.18
5609;BME280;2826;51.354;9.588;2023-12-20T09:44:13;97865.44;;;6.80;82.78
5609;BME280;2826;51.354;9.588;2023-12-20T09:46:43;97862.97;;;6.75;83.29
5609;BME280;2826;51.354;9.588;2023-12-20T09:49:12;97856.81;;;6.81;82.91
5609;BME280;2826;51.354;9.588;2023-12-20T09:51:39;97859.41;;;6.79;82.63
5609;BME280;2826;51.354;9.588;2023-12-20T09:54:07;97854.44;;;6.73;82.58
5609;BME280;2826;51.354;9.588;2023-12-20T09:56:33;97842.97;;;6.84;82.39
5609;BME280;2826;51.354;9.588;2023-12-20T09:59:00;97848.75;;;6.92;82.17
5609;BME280;2826;51.354;9.588;2023-12-20T10:01:28;97865.97;;;6.90;82.30
5609;BME280;2826;51.354;9.588;2023-12-20T10:03:56;97865.16;;;6.89;82.26
5609;BME280;2826;51.354;9.588;2023-12-20T10:06:25;97857.69;;;6.80;82.79
5609;BME280;2826;51.354;9.588;2023-12-20T10:08:52;97850.75;;;6.82;82.61
5609;BME280;2826;51.354;9.588;2023-12-20T10:11:19;97854.25;;;6.79;82.92
5609;BME280;2826;51.354;9.588;2023-12-20T10:13:47;97850.84;;;6.79;83.33
5609;BME280;2826;51.354;9.588;2023-12-20T10:16:14;97842.09;;;6.85;83.07
5609;BME280;2826;51.354;9.588;2023-12-20T10:18:40;97838.66;;;6.84;83.13
5609;BME280;2826;51.354;9.588;2023-12-20T10:21:07;97833.44;;;6.86;83.61
5609;BME280;2826;51.354;9.588;2023-12-20T10:23:36;97822.41;;;6.82;83.95
5609;BME280;2826;51.354;9.588;2023-12-20T10:26:04;97819.59;;;6.90;83.87
5609;BME280;2826;51.354;9.588;2023-12-20T10:28:33;97818.59;;;6.94;84.14
5609;BME280;2826;51.354;9.588;2023-12-20T10:31:00;97819.22;;;7.02;83.62
5609;BME280;2826;51.354;9.588;2023-12-20T10:33:28;97813.94;;;7.07;83.95
5609;BME280;2826;51.354;9.588;2023-12-20T10:35:55;97810.97;;;7.18;83.23
5609;BME280;2826;51.354;9.588;2023-12-20T10:38:22;97802.25;;;7.22;83.20
5609;BME280;2826;51.354;9.588;2023-12-20T10:40:53;97810.00;;;7.22;82.91
5609;BME280;2826;51.354;9.588;2023-12-20T10:43:21;97809.88;;;7.27;82.98
5609;BME280;2826;51.354;9.588;2023-12-20T10:45:49;97806.38;;;7.28;82.58
5609;BME280;2826;51.354;9.588;2023-12-20T10:48:16;97802.88;;;7.30;82.37
5609;BME280;2826;51.354;9.588;2023-12-20T10:50:43;97799.50;;;7.28;82.52
5609;BME280;2826;51.354;9.588;2023-12-20T10:53:11;97791.06;;;7.23;83.11
5609;BME280;2826;51.354;9.588;2023-12-20T10:55:40;97780.00;;;7.19;83.22
5609;BME280;2826;51.354;9.588;2023-12-20T10:58:09;97791.75;;;7.28;83.02
5609;BME280;2826;51.354;9.588;2023-12-20T11:00:39;97782.53;;;7.21;83.00
5609;BME280;2826;51.354;9.588;2023-12-20T11:03:08;97780.59;;;7.28;82.74
5609;BME280;2826;51.354;9.588;2023-12-20T11:05:39;97772.72;;;7.32;82.69
5609;BME280;2826;51.354;9.588;2023-12-20T11:08:12;97772.69;;;7.34;81.80
5609;BME280;2826;51.354;9.588;2023-12-20T11:10:45;97771.13;;;7.28;82.05
5609;BME280;2826;51.354;9.588;2023-12-20T11:13:21;97771.50;;;7.43;81.48
5609;BME280;2826;51.354;9.588;2023-12-20T11:15:49;97768.78;;;7.48;81.67
5609;BME280;2826;51.354;9.588;2023-12-20T11:18:15;97769.75;;;7.45;81.67
5609;BME280;2826;51.354;9.588;2023-12-20T11:20:42;97757.63;;;7.47;81.34
5609;BME280;2826;51.354;9.588;2023-12-20T11:23:09;97756.84;;;7.45;81.40
5609;BME280;2826;51.354;9.588;2023-12-20T11:25:48;97753.50;;;7.41;81.08
5609;BME280;2826;51.354;9.588;2023-12-20T11:28:22;97727.38;;;7.25;81.61
5609;BME280;2826;51.354;9.588;2023-12-20T11:30:51;97748.28;;;7.43;81.70
5609;BME280;2826;51.354;9.588;2023-12-20T11:33:21;97739.50;;;7.49;80.97
5609;BME280;2826;51.354;9.588;2023-12-20T11:35:55;97748.19;;;7.46;81.07
5609;BME280;2826;51.354;9.588;2023-12-20T11:38:22;97743.13;;;7.43;81.32
5609;BME280;2826;51.354;9.588;2023-12-20T11:40:50;97737.88;;;7.46;81.35
5609;BME280;2826;51.354;9.588;2023-12-20T11:43:30;97730.00;;;7.49;81.19
5609;BME280;2826;51.354;9.588;2023-12-20T11:46:03;97737.97;;;7.43;81.22
5609;BME280;2826;51.354;9.588;2023-12-20T11:48:30;97725.88;;;7.45;81.25
5609;BME280;2826;51.354;9.588;2023-12-20T11:50:57;97722.53;;;7.41;81.85
5609;BME280;2826;51.354;9.588;2023-12-20T11:53:23;97717.34;;;7.43;81.58
5609;BME280;2826;51.354;9.588;2023-12-20T11:55:50;97705.63;;;7.34;81.85
5609;BME280;2826;51.354;9.588;2023-12-20T11:58:16;97697.03;;;7.34;82.11
5609;BME280;2826;51.354;9.588;2023-12-20T12:00:44;97696.03;;;7.38;81.83
5609;BME280;2826;51.354;9.588;2023-12-20T12:03:14;97703.66;;;7.41;81.92
5609;BME280;2826;51.354;9.588;2023-12-20T12:05:41;97694.34;;;7.37;82.35
5609;BME280;2826;51.354;9.588;2023-12-20T12:08:08;97700.75;;;7.25;82.30
5609;BME280;2826;51.354;9.588;2023-12-20T12:10:34;97694.06;;;7.19;83.10
5609;BME280;2826;51.354;9.588;2023-12-20T12:13:01;97693.72;;;7.30;82.32
5609;BME280;2826;51.354;9.588;2023-12-20T12:15:27;97691.00;;;7.33;81.89
5609;BME280;2826;51.354;9.588;2023-12-20T12:17:57;97683.44;;;7.28;82.25
5609;BME280;2826;51.354;9.588;2023-12-20T12:20:24;97672.31;;;7.26;81.90
5609;BME280;2826;51.354;9.588;2023-12-20T12:23:00;97679.91;;;7.31;82.41
5609;BME280;2826;51.354;9.588;2023-12-20T12:25:28;97684.97;;;7.34;82.16
5609;BME280;2826;51.354;9.588;2023-12-20T12:27:55;97676.38;;;7.34;82.48
5609;BME280;2826;51.354;9.588;2023-12-20T12:30:22;97676.53;;;7.29;82.78
5609;BME280;2826;51.354;9.588;2023-12-20T12:32:50;97668.97;;;7.24;83.57
5609;BME280;2826;51.354;9.588;2023-12-20T12:35:18;97652.53;;;7.27;83.68
5609;BME280;2826;51.354;9.588;2023-12-20T12:37:45;97660.44;;;7.22;83.66
5609;BME280;2826;51.354;9.588;2023-12-20T12:40:13;97653.59;;;7.21;84.03
5609;BME280;2826;51.354;9.588;2023-12-20T12:42:41;97644.09;;;7.23;83.73
5609;BME280;2826;51.354;9.588;2023-12-20T12:45:09;97618.63;;;7.14;83.39
5609;BME280;2826;51.354;9.588;2023-12-20T12:47:37;97629.19;;;7.31;83.72
5609;BME280;2826;51.354;9.588;2023-12-20T12:50:04;97640.22;;;7.35;83.96
5609;BME280;2826;51.354;9.588;2023-12-20T12:52:32;97642.00;;;7.33;84.21
5609;BME280;2826;51.354;9.588;2023-12-20T12:55:00;97645.59;;;7.29;84.66
5609;BME280;2826;51.354;9.588;2023-12-20T12:57:26;97645.53;;;7.30;84.52
5609;BME280;2826;51.354;9.588;2023-12-20T12:59:53;97642.31;;;7.24;85.15
5609;BME280;2826;51.354;9.588;2023-12-20T13:02:20;97637.22;;;7.22;85.52
5609;BME280;2826;51.354;9.588;2023-12-20T13:04:46;97642.44;;;7.21;85.78
5609;BME280;2826;51.354;9.588;2023-12-20T13:07:13;97645.72;;;7.26;85.57
5609;BME280;2826;51.354;9.588;2023-12-20T13:09:41;97654.28;;;7.26;85.97
5609;BME280;2826;51.354;9.588;2023-12-20T13:12:08;97661.50;;;7.16;86.14
5609;BME280;2826;51.354;9.588;2023-12-20T13:14:35;97621.56;;;7.03;86.38
5609;BME280;2826;51.354;9.588;2023-12-20T13:17:02;97606.50;;;6.90;86.86
5609;BME280;2826;51.354;9.588;2023-12-20T13:19:30;97652.00;;;7.17;86.78
5609;BME280;2826;51.354;9.588;2023-12-20T13:21:56;97650.34;;;7.16;87.00
5609;BME280;2826;51.354;9.588;2023-12-20T13:24:23;97652.28;;;7.09;87.60
5609;BME280;2826;51.354;9.588;2023-12-20T13:26:51;97643.50;;;7.15;87.16
5609;BME280;2826;51.354;9.588;2023-12-20T13:29:18;97634.31;;;7.06;87.57
5609;BME280;2826;51.354;9.588;2023-12-20T13:31:44;97644.53;;;7.09;87.36